createdAt,value
2022-12-08T00:01:30.039Z,10.00
2022-12-08T00:03:59.715Z,6.75
2022-12-08T00:06:48.487Z,11.00
2022-12-08T00:09:27.389Z,12.00
2022-12-08T00:12:04.225Z,8.00
2022-12-08T00:14:40.924Z,8.00
2022-12-08T00:17:10.301Z,15.75
2022-12-08T00:19:41.942Z,9.75
2022-12-08T00:22:11.413Z,12.25
2022-12-08T00:24:40.664Z,8.50
2022-12-08T00:27:09.467Z,20.00
2022-12-08T00:29:37.375Z,5.00
2022-12-08T00:32:06.241Z,8.50
2022-12-08T00:34:34.048Z,2.75
2022-12-08T00:37:01.850Z,11.25
2022-12-08T00:39:29.420Z,8.00
2022-12-08T00:42:15.003Z,6.50
2022-12-08T00:44:43.962Z,12.50
2022-12-08T00:47:12.304Z,8.00
2022-12-08T00:49:39.978Z,7.00
2022-12-08T00:52:07.661Z,11.75
2022-12-08T00:54:35.403Z,8.25
2022-12-08T00:57:02.993Z,7.50
2022-12-08T00:59:30.571Z,9.00
2022-12-08T01:01:58.064Z,6.60
2022-12-08T01:04:25.701Z,7.75
2022-12-08T01:06:53.160Z,7.50
2022-12-08T01:09:20.636Z,5.00
2022-12-08T01:11:48.527Z,10.75
2022-12-08T01:14:16.217Z,11.50
2022-12-08T01:16:44.198Z,10.75
2022-12-08T01:19:13.578Z,11.50
2022-12-08T01:21:41.727Z,4.25
2022-12-08T01:24:13.039Z,7.50
2022-12-08T01:26:41.126Z,5.00
2022-12-08T01:29:08.989Z,8.25
2022-12-08T01:31:36.352Z,4.25
2022-12-08T01:34:04.075Z,9.00
2022-12-08T01:36:33.501Z,12.50
2022-12-08T01:39:02.474Z,3.75
2022-12-08T01:41:32.811Z,6.25
2022-12-08T01:44:25.002Z,6.00
2022-12-08T01:46:53.942Z,10.50
2022-12-08T01:49:36.589Z,9.50
2022-12-08T01:52:12.322Z,7.00
2022-12-08T01:54:51.705Z,1.25
2022-12-08T01:57:31.121Z,5.50
2022-12-08T02:00:09.261Z,4.25
2022-12-08T02:02:53.689Z,6.00
2022-12-08T02:05:24.839Z,5.25
2022-12-08T02:07:53.297Z,6.80
2022-12-08T02:10:23.495Z,14.00
2022-12-08T02:12:53.824Z,9.25
2022-12-08T02:15:33.083Z,5.00
2022-12-08T02:18:38.771Z,9.00
2022-12-08T02:21:14.509Z,13.25
2022-12-08T02:24:05.865Z,5.50
2022-12-08T02:26:52.059Z,1.00
2022-12-08T02:29:50.039Z,4.50
2022-12-08T02:32:49.186Z,4.75
2022-12-08T02:35:39.737Z,7.75
2022-12-08T02:38:36.761Z,8.25
2022-12-08T02:41:31.498Z,11.40
2022-12-08T02:44:13.876Z,3.00
2022-12-08T02:46:54.500Z,4.00
2022-12-08T02:49:22.034Z,3.75
2022-12-08T02:51:49.658Z,9.00
2022-12-08T02:54:17.434Z,5.00
2022-12-08T02:56:59.861Z,8.50
2022-12-08T03:00:13.656Z,7.00
2022-12-08T03:03:19.521Z,4.40
2022-12-08T03:06:31.603Z,6.25
2022-12-08T03:09:10.874Z,3.00
2022-12-08T03:11:53.822Z,4.00
2022-12-08T03:14:22.886Z,7.25
2022-12-08T03:16:55.708Z,2.00
2022-12-08T03:19:36.622Z,7.00
2022-12-08T03:22:06.612Z,1.75
2022-12-08T03:24:43.424Z,4.00
2022-12-08T03:27:22.256Z,5.75
2022-12-08T03:29:53.289Z,5.00
2022-12-08T03:32:39.092Z,6.25
2022-12-08T03:35:10.844Z,3.25
2022-12-08T03:37:40.268Z,4.00
2022-12-08T03:40:11.076Z,3.75
2022-12-08T03:42:38.491Z,2.00
2022-12-08T03:45:06.617Z,6.25
2022-12-08T03:47:34.257Z,4.00
2022-12-08T03:50:02.062Z,4.50
2022-12-08T03:52:29.893Z,4.20
2022-12-08T03:54:57.375Z,5.25
2022-12-08T03:57:24.980Z,7.40
2022-12-08T03:59:52.500Z,4.50
2022-12-08T04:02:20.073Z,3.00
2022-12-08T04:04:47.573Z,3.25
2022-12-08T04:07:14.951Z,6.25
2022-12-08T04:09:42.622Z,4.00
2022-12-08T04:12:10.353Z,4.00
2022-12-08T04:14:37.858Z,1.40
2022-12-08T04:17:05.630Z,4.00
2022-12-08T04:19:32.936Z,2.60
2022-12-08T04:22:00.597Z,3.60
2022-12-08T04:24:28.097Z,2.60
2022-12-08T04:26:55.670Z,3.00
2022-12-08T04:29:23.221Z,5.20
2022-12-08T04:31:50.961Z,3.25
2022-12-08T04:34:18.258Z,3.50
2022-12-08T04:36:45.857Z,4.00
2022-12-08T04:39:13.229Z,3.00
2022-12-08T04:41:40.899Z,1.40
2022-12-08T04:44:08.189Z,2.20
2022-12-08T04:46:40.185Z,9.00
2022-12-08T04:49:10.703Z,2.60
2022-12-08T04:51:38.283Z,3.40
2022-12-08T04:54:06.059Z,7.00
2022-12-08T04:56:33.491Z,4.50
2022-12-08T04:59:00.887Z,3.00
2022-12-08T05:01:28.298Z,1.00
2022-12-08T05:03:55.887Z,3.60
2022-12-08T05:06:23.420Z,3.00
2022-12-08T05:08:50.683Z,3.25
2022-12-08T05:11:18.742Z,4.00
2022-12-08T05:13:46.499Z,7.00
2022-12-08T05:16:15.965Z,1.00
2022-12-08T05:18:44.399Z,6.20
2022-12-08T05:21:12.028Z,6.00
2022-12-08T05:23:39.846Z,6.00
2022-12-08T05:26:07.416Z,4.40
2022-12-08T05:28:43.320Z,3.80
2022-12-08T05:31:13.235Z,9.00
2022-12-08T05:33:41.481Z,6.60
2022-12-08T05:36:10.078Z,3.60
2022-12-08T05:38:37.657Z,3.00
2022-12-08T05:41:10.199Z,5.20
2022-12-08T05:43:37.669Z,0.00
2022-12-08T05:46:05.611Z,3.00
2022-12-08T05:48:33.400Z,5.40
2022-12-08T05:51:01.601Z,3.80
2022-12-08T05:53:29.195Z,3.75
2022-12-08T05:55:56.846Z,4.80
2022-12-08T05:58:25.845Z,4.00
2022-12-08T06:00:53.646Z,1.60
2022-12-08T06:03:21.460Z,1.00
2022-12-08T06:05:49.312Z,3.20
2022-12-08T06:08:17.422Z,1.40
2022-12-08T06:10:46.028Z,1.00
2022-12-08T06:13:14.605Z,3.80
2022-12-08T06:15:42.674Z,1.00
2022-12-08T06:18:11.284Z,1.80
2022-12-08T06:20:38.849Z,5.60
2022-12-08T06:23:06.703Z,3.00
2022-12-08T06:25:34.043Z,6.00
2022-12-08T06:28:01.922Z,5.20
2022-12-08T06:30:29.529Z,1.00
2022-12-08T06:32:57.273Z,1.80
2022-12-08T06:35:24.837Z,3.00
2022-12-08T06:37:52.609Z,1.00
2022-12-08T06:40:20.462Z,4.00
2022-12-08T06:42:48.166Z,4.00
2022-12-08T06:45:17.781Z,4.00
2022-12-08T06:47:45.845Z,6.20
2022-12-08T06:50:15.165Z,3.40
2022-12-08T06:52:54.222Z,4.00
2022-12-08T06:55:57.299Z,6.20
2022-12-08T06:58:15.323Z,9.80
2022-12-08T07:00:43.755Z,9.00
2022-12-08T07:03:12.771Z,4.00
2022-12-08T07:05:40.612Z,4.00
2022-12-08T07:08:09.565Z,6.40
2022-12-08T07:10:37.337Z,6.60
2022-12-08T07:13:05.156Z,7.00
2022-12-08T07:15:32.516Z,3.00
2022-12-08T07:18:00.684Z,5.80
2022-12-08T07:20:28.621Z,8.60
2022-12-08T07:22:56.280Z,4.00
2022-12-08T07:25:24.117Z,3.20
2022-12-08T07:27:52.996Z,5.20
2022-12-08T07:30:20.416Z,4.00
2022-12-08T07:32:47.740Z,4.00
2022-12-08T07:35:15.054Z,4.80
2022-12-08T07:37:42.479Z,6.20
2022-12-08T07:40:10.515Z,6.40
2022-12-08T07:42:38.172Z,3.40
2022-12-08T07:45:06.203Z,1.40
2022-12-08T07:47:33.966Z,6.20
2022-12-08T07:50:01.727Z,4.80
2022-12-08T07:52:29.409Z,3.00
2022-12-08T07:54:57.031Z,11.00
2022-12-08T07:57:24.655Z,6.60
2022-12-08T07:59:52.316Z,3.00
2022-12-08T08:02:25.345Z,1.40
2022-12-08T08:04:53.841Z,1.00
2022-12-08T08:07:21.601Z,7.60
2022-12-08T08:09:49.248Z,4.00
2022-12-08T08:12:32.931Z,5.20
2022-12-08T08:15:02.318Z,3.20
2022-12-08T08:17:30.601Z,1.00
2022-12-08T08:19:58.365Z,3.40
2022-12-08T08:22:28.761Z,5.20
2022-12-08T08:24:57.269Z,4.40
2022-12-08T08:27:25.561Z,3.20
2022-12-08T08:29:55.256Z,3.00
2022-12-08T08:32:22.841Z,6.40
2022-12-08T08:34:52.369Z,5.20
2022-12-08T08:37:19.664Z,5.40
2022-12-08T08:39:47.746Z,4.00
2022-12-08T08:42:15.167Z,3.20
2022-12-08T08:44:43.702Z,1.40
2022-12-08T08:47:11.679Z,4.00
2022-12-08T08:49:39.153Z,6.00
2022-12-08T08:52:07.272Z,3.20
2022-12-08T08:54:35.875Z,5.80
2022-12-08T08:57:03.194Z,3.20
2022-12-08T08:59:30.909Z,4.00
2022-12-08T09:01:58.767Z,7.40
2022-12-08T09:04:26.534Z,1.00
2022-12-08T09:06:54.201Z,1.00
2022-12-08T09:09:21.882Z,2.60
2022-12-08T09:11:49.661Z,3.00
2022-12-08T09:14:17.450Z,3.20
2022-12-08T09:16:45.046Z,3.80
2022-12-08T09:19:12.841Z,2.00
2022-12-08T09:21:41.799Z,4.40
2022-12-08T09:24:16.088Z,5.40
2022-12-08T09:26:44.713Z,1.40
2022-12-08T09:29:13.871Z,1.60
2022-12-08T09:31:42.582Z,1.60
2022-12-08T09:34:12.548Z,2.40
2022-12-08T09:36:40.984Z,4.00
2022-12-08T09:39:09.081Z,0.00
2022-12-08T09:41:50.503Z,2.80
2022-12-08T09:44:46.794Z,1.60
2022-12-08T09:47:18.976Z,4.00
2022-12-08T09:50:18.263Z,1.00
2022-12-08T09:52:53.851Z,8.00
2022-12-08T09:55:37.479Z,0.00
2022-12-08T09:58:12.689Z,18.20
2022-12-08T10:00:40.399Z,5.20
2022-12-08T10:03:16.650Z,4.40
2022-12-08T10:05:56.279Z,4.40
2022-12-08T10:08:35.254Z,3.40
2022-12-08T10:11:13.443Z,5.00
2022-12-08T10:14:08.493Z,3.80
2022-12-08T10:16:46.509Z,0.80
2022-12-08T10:19:25.590Z,5.00
2022-12-08T10:21:54.490Z,4.00
2022-12-08T10:24:51.822Z,2.80
2022-12-08T10:27:19.455Z,2.80
2022-12-08T10:29:47.618Z,1.00
2022-12-08T10:32:20.610Z,0.00
2022-12-08T10:35:08.803Z,2.00
2022-12-08T10:37:36.466Z,1.80
2022-12-08T10:40:17.121Z,1.00
2022-12-08T10:42:49.268Z,1.00
2022-12-08T10:45:44.181Z,1.60
2022-12-08T10:48:17.000Z,3.60
2022-12-08T10:50:50.568Z,1.40
2022-12-08T10:53:27.177Z,3.20
2022-12-08T10:56:15.815Z,2.00
2022-12-08T10:58:45.248Z,2.20
2022-12-08T11:01:27.007Z,1.00
2022-12-08T11:04:04.475Z,5.80
2022-12-08T11:06:40.472Z,1.00
2022-12-08T11:09:37.484Z,1.00
2022-12-08T11:12:10.072Z,1.80
2022-12-08T11:14:43.564Z,1.00
2022-12-08T11:17:39.824Z,1.20
2022-12-08T11:20:10.436Z,5.00
2022-12-08T11:22:46.154Z,2.20
2022-12-08T11:25:21.769Z,3.20
2022-12-08T11:27:57.321Z,5.80
2022-12-08T11:30:29.607Z,3.20
2022-12-08T11:33:03.886Z,4.00
2022-12-08T11:35:37.330Z,4.80
2022-12-08T11:38:26.275Z,2.60
2022-12-08T11:41:09.470Z,5.20
2022-12-08T11:43:51.778Z,5.00
2022-12-08T11:46:28.038Z,4.20
2022-12-08T11:49:06.339Z,2.40
2022-12-08T11:51:55.074Z,2.00
2022-12-08T11:54:41.600Z,5.40
2022-12-08T11:57:16.932Z,2.00
2022-12-08T11:59:51.566Z,1.00
2022-12-08T12:02:23.662Z,1.60
2022-12-08T12:05:03.470Z,6.20
2022-12-08T12:08:18.658Z,6.40
2022-12-08T12:10:54.681Z,4.00
2022-12-08T12:14:00.926Z,0.40
2022-12-08T12:16:56.288Z,0.60
2022-12-08T12:19:25.287Z,3.60
2022-12-08T12:21:56.632Z,2.00
2022-12-08T12:24:36.024Z,2.60
2022-12-08T12:27:28.210Z,3.00
2022-12-08T12:30:02.572Z,3.00
2022-12-08T12:32:44.798Z,4.00
2022-12-08T12:35:48.165Z,1.80
2022-12-08T12:38:45.595Z,2.20
2022-12-08T12:41:19.734Z,2.80
2022-12-08T12:44:13.720Z,2.20
2022-12-08T12:46:51.215Z,1.00
2022-12-08T12:49:40.849Z,2.20
2022-12-08T12:52:16.207Z,3.00
2022-12-08T12:54:45.938Z,3.00
2022-12-08T12:57:13.661Z,4.00
2022-12-08T12:59:46.168Z,2.40
2022-12-08T13:02:26.645Z,1.80
2022-12-08T13:05:06.173Z,4.00
2022-12-08T13:07:41.388Z,0.00
2022-12-08T13:10:19.191Z,1.00
2022-12-08T13:13:06.072Z,0.20
2022-12-08T13:15:57.000Z,3.40
2022-12-08T13:18:36.614Z,0.20
2022-12-08T13:21:09.290Z,2.60
2022-12-08T13:23:47.479Z,3.80
2022-12-08T13:26:25.968Z,3.00
2022-12-08T13:28:59.257Z,0.60
2022-12-08T13:31:53.723Z,3.40
2022-12-08T13:34:29.934Z,4.60
2022-12-08T13:37:17.793Z,0.60
2022-12-08T13:40:09.635Z,2.20
2022-12-08T13:43:02.089Z,3.00
2022-12-08T13:46:18.266Z,1.00
2022-12-08T13:49:26.282Z,4.00
2022-12-08T13:53:34.132Z,6.40
2022-12-08T13:57:14.737Z,3.80
2022-12-08T13:59:46.360Z,2.60
2022-12-08T14:02:18.690Z,4.00
2022-12-08T14:07:40.591Z,1.00
2022-12-08T14:10:16.238Z,3.00
2022-12-08T14:12:48.223Z,0.00
2022-12-08T14:15:16.630Z,2.20
2022-12-08T14:17:53.065Z,3.00
2022-12-08T14:20:33.839Z,1.00
2022-12-08T14:23:11.080Z,0.00
2022-12-08T14:25:39.096Z,1.00
2022-12-08T14:28:06.880Z,3.00
2022-12-08T14:30:37.608Z,4.80
2022-12-08T14:33:06.131Z,3.75
2022-12-08T14:35:36.954Z,6.20
2022-12-08T14:38:15.807Z,3.00
2022-12-08T14:41:08.038Z,3.00
2022-12-08T14:43:36.123Z,8.25
2022-12-08T14:46:18.987Z,0.75
2022-12-08T14:48:46.969Z,1.00
2022-12-08T14:51:28.840Z,0.20
2022-12-08T14:54:03.095Z,3.00
2022-12-08T14:56:39.679Z,7.00
2022-12-08T14:59:13.520Z,8.00
2022-12-08T15:01:43.369Z,6.00
2022-12-08T15:04:14.122Z,6.50
2022-12-08T15:06:52.715Z,6.50
2022-12-08T15:09:36.524Z,3.00
2022-12-08T15:12:13.384Z,4.50
2022-12-08T15:14:58.235Z,6.75
2022-12-08T15:17:42.477Z,5.25
2022-12-08T15:20:41.401Z,5.00
2022-12-08T15:23:29.476Z,3.00
2022-12-08T15:25:57.553Z,9.75
2022-12-08T15:28:30.027Z,6.00
2022-12-08T15:30:59.037Z,11.25
2022-12-08T15:33:27.083Z,4.50
2022-12-08T15:35:54.818Z,2.50
2022-12-08T15:38:29.125Z,3.50
2022-12-08T15:41:00.794Z,4.50
2022-12-08T15:43:28.531Z,3.75
2022-12-08T15:46:00.370Z,3.00
2022-12-08T15:48:30.968Z,3.50
2022-12-08T15:50:59.318Z,4.00
2022-12-08T15:53:27.078Z,1.00
2022-12-08T15:58:59.008Z,6.25
2022-12-08T16:01:27.243Z,6.00
2022-12-08T16:04:37.256Z,8.50
2022-12-08T16:09:45.925Z,6.00
2022-12-08T16:13:40.420Z,6.75
2022-12-08T16:18:24.137Z,4.00
2022-12-08T16:23:43.499Z,6.00
2022-12-08T16:29:08.101Z,3.00
2022-12-08T16:31:35.411Z,1.00
2022-12-08T16:34:02.842Z,6.50
2022-12-08T16:36:30.062Z,9.50
2022-12-08T16:38:57.301Z,4.00
2022-12-08T16:41:43.065Z,5.00
2022-12-08T16:44:10.380Z,6.50
2022-12-08T16:46:37.634Z,4.50
2022-12-08T16:49:07.951Z,6.25
2022-12-08T16:51:35.323Z,6.25
2022-12-08T16:54:02.605Z,3.00
2022-12-08T16:56:33.480Z,3.25
2022-12-08T16:59:02.056Z,5.50
2022-12-08T17:01:29.673Z,4.00
2022-12-08T17:04:29.286Z,5.75
2022-12-08T17:06:44.406Z,10.25
2022-12-08T17:09:11.666Z,5.00
2022-12-08T17:11:42.909Z,4.00
2022-12-08T17:14:14.186Z,14.75
2022-12-08T17:16:42.477Z,9.00
2022-12-08T17:19:09.956Z,7.00
2022-12-08T17:21:37.182Z,8.75
2022-12-08T17:24:05.431Z,6.75
2022-12-08T17:26:32.804Z,4.50
2022-12-08T17:29:01.913Z,2.50
2022-12-08T17:31:31.283Z,3.25
2022-12-08T17:34:03.515Z,6.00
2022-12-08T17:36:31.259Z,6.25
2022-12-08T17:39:00.936Z,3.25
2022-12-08T17:41:28.785Z,9.50
2022-12-08T17:43:56.757Z,11.75
2022-12-08T17:46:24.455Z,3.50
2022-12-08T17:48:52.341Z,6.75
2022-12-08T17:51:20.260Z,7.00
2022-12-08T17:53:47.426Z,8.00
2022-12-08T17:56:20.991Z,1.00
2022-12-08T17:58:54.324Z,5.00
2022-12-08T18:01:23.353Z,3.75
2022-12-08T18:03:51.461Z,5.50
2022-12-08T18:06:18.927Z,6.75
2022-12-08T18:08:46.364Z,6.50
2022-12-08T18:11:17.978Z,12.00
2022-12-08T18:13:46.424Z,7.75
2022-12-08T18:16:14.435Z,9.40
2022-12-08T18:18:41.994Z,3.80
2022-12-08T18:21:09.860Z,5.60
2022-12-08T18:23:42.500Z,6.80
2022-12-08T18:26:12.525Z,3.00
2022-12-08T18:28:40.253Z,4.00
2022-12-08T18:31:20.031Z,0.00
2022-12-08T18:33:48.787Z,2.50
2022-12-08T18:36:18.825Z,4.00
2022-12-08T18:38:46.787Z,4.00
2022-12-08T18:41:17.858Z,4.50
2022-12-08T18:43:45.278Z,6.75
2022-12-08T18:46:14.291Z,6.25
2022-12-08T18:48:45.068Z,3.50
2022-12-08T18:51:14.010Z,6.25
2022-12-08T18:53:43.302Z,6.00
2022-12-08T18:56:26.159Z,5.00
2022-12-08T18:58:58.463Z,5.00
2022-12-08T19:01:29.088Z,5.50
2022-12-08T19:06:47.725Z,3.00
2022-12-08T19:09:15.985Z,4.00
2022-12-08T19:11:44.251Z,4.00
2022-12-08T19:14:12.113Z,1.75
2022-12-08T19:16:39.401Z,5.00
2022-12-08T19:19:06.873Z,6.00
2022-12-08T19:21:34.840Z,9.75
2022-12-08T19:24:02.195Z,3.25
2022-12-08T19:26:29.819Z,4.50
2022-12-08T19:28:58.101Z,4.50
2022-12-08T19:31:25.905Z,10.75
2022-12-08T19:33:53.604Z,4.00
2022-12-08T19:36:22.541Z,5.50
2022-12-08T19:39:08.637Z,7.50
2022-12-08T19:41:55.554Z,1.00
2022-12-08T19:44:33.177Z,6.50
2022-12-08T19:47:01.898Z,6.75
2022-12-08T19:49:29.549Z,8.00
2022-12-08T19:51:56.883Z,8.50
2022-12-08T19:54:24.258Z,5.75
2022-12-08T19:56:51.660Z,6.75
2022-12-08T19:59:19.499Z,11.25
2022-12-08T20:01:48.574Z,12.00
2022-12-08T20:04:16.607Z,7.00
2022-12-08T20:06:45.763Z,4.25
2022-12-08T20:09:13.472Z,18.25
2022-12-08T20:11:41.333Z,9.50
2022-12-08T20:14:08.691Z,8.00
2022-12-08T20:16:36.493Z,9.00
2022-12-08T20:19:04.374Z,0.25
2022-12-08T20:21:31.589Z,5.00
2022-12-08T20:23:58.778Z,5.00
2022-12-08T20:26:25.967Z,6.50
2022-12-08T20:28:53.405Z,14.00
2022-12-08T20:31:26.745Z,7.00
2022-12-08T20:33:55.023Z,16.25
2022-12-08T20:36:23.418Z,9.00
2022-12-08T20:38:52.809Z,10.00
2022-12-08T20:41:21.114Z,16.75
2022-12-08T20:43:49.032Z,18.00
2022-12-08T20:46:17.917Z,11.00
2022-12-08T20:48:45.478Z,9.50
2022-12-08T20:51:15.292Z,10.25
2022-12-08T20:53:44.068Z,12.50
2022-12-08T20:56:20.059Z,9.75
2022-12-08T20:58:47.940Z,16.00
2022-12-08T21:01:21.374Z,14.00
2022-12-08T21:03:50.610Z,14.00
2022-12-08T21:06:22.779Z,9.50
2022-12-08T21:08:51.177Z,7.00
2022-12-08T21:11:19.257Z,3.75
2022-12-08T21:13:47.261Z,12.50
2022-12-08T21:16:16.045Z,14.00
2022-12-08T21:18:43.533Z,18.00
2022-12-08T21:21:13.376Z,15.50
2022-12-08T21:23:42.753Z,7.75
2022-12-08T21:26:13.215Z,10.25
2022-12-08T21:28:41.094Z,3.00
2022-12-08T21:31:13.975Z,13.25
2022-12-08T21:33:41.879Z,13.00
2022-12-08T21:36:16.186Z,10.00
2022-12-08T21:38:44.584Z,11.25
2022-12-08T21:41:15.506Z,7.75
2022-12-08T21:43:43.741Z,13.50
2022-12-08T21:46:19.537Z,9.75
2022-12-08T21:48:47.219Z,8.25
2022-12-08T21:51:15.159Z,24.25
2022-12-08T21:53:42.671Z,10.50
2022-12-08T21:56:10.665Z,18.75
2022-12-08T21:58:39.949Z,13.25
2022-12-08T22:01:09.741Z,5.50
2022-12-08T22:03:39.829Z,6.75
2022-12-08T22:06:13.217Z,12.25
2022-12-08T22:08:42.234Z,18.00
2022-12-08T22:11:11.820Z,15.75
2022-12-08T22:13:41.623Z,15.75
2022-12-08T22:16:12.627Z,18.25
2022-12-08T22:18:40.629Z,16.00
2022-12-08T22:21:10.241Z,11.00
2022-12-08T22:23:38.118Z,11.50
2022-12-08T22:26:06.727Z,18.25
2022-12-08T22:28:38.149Z,19.00
2022-12-08T22:31:17.171Z,9.25
2022-12-08T22:33:45.299Z,12.50
2022-12-08T22:36:17.439Z,13.00
2022-12-08T22:38:45.323Z,10.50
2022-12-08T22:41:13.002Z,15.50
2022-12-08T22:43:41.029Z,18.00
2022-12-08T22:46:24.450Z,16.25
2022-12-08T22:48:52.871Z,13.75
2022-12-08T22:51:20.328Z,21.25
2022-12-08T22:53:48.434Z,20.50
2022-12-08T22:56:17.153Z,9.00
2022-12-08T22:58:45.674Z,27.25
2022-12-08T23:01:30.016Z,21.00
2022-12-08T23:03:59.273Z,22.00
2022-12-08T23:06:28.431Z,12.50
2022-12-08T23:08:56.250Z,12.00
2022-12-08T23:11:27.681Z,14.25
2022-12-08T23:13:56.455Z,16.00
2022-12-08T23:16:24.112Z,16.50
2022-12-08T23:18:51.888Z,13.50
2022-12-08T23:21:20.769Z,17.25
2022-12-08T23:23:48.902Z,8.50
2022-12-08T23:26:28.450Z,20.75
2022-12-08T23:28:57.321Z,9.25
2022-12-08T23:31:25.842Z,14.00
2022-12-08T23:33:54.821Z,23.75
2022-12-08T23:36:26.838Z,16.25
2022-12-08T23:38:56.553Z,18.00
2022-12-08T23:41:24.155Z,15.75
2022-12-08T23:43:52.878Z,7.50
2022-12-08T23:46:22.595Z,13.50
2022-12-08T23:48:51.710Z,15.25
2022-12-08T23:51:19.625Z,18.50
2022-12-08T23:53:47.454Z,13.00
2022-12-08T23:56:17.904Z,13.25
2022-12-08T23:58:46.533Z,14.75
